sensor_id;sensor_type;location;lat;lon;timestamp;temperature;humidity
39347;DHT22;26262;49.836;6.632;2023-05-03T00:00:13;6.80;99.90
39347;DHT22;26262;49.836;6.632;2023-05-03T00:02:40;6.50;99.90
39347;DHT22;26262;49.836;6.632;2023-05-03T00:05:09;6.60;99.90
39347;DHT22;26262;49.836;6.632;2023-05-03T00:07:41;6.30;99.90
39347;DHT22;26262;49.836;6.632;2023-05-03T00:10:08;6.20;99.90
39347;DHT22;26262;49.836;6.632;2023-05-03T00:12:36;6.30;99.90
39347;DHT22;26262;49.836;6.632;2023-05-03T00:15:02;6.30;99.90
39347;DHT22;26262;49.836;6.632;2023-05-03T00:17:28;6.00;99.90
39347;DHT22;26262;49.836;6.632;2023-05-03T00:19:54;6.10;99.90
39347;DHT22;26262;49.836;6.632;2023-05-03T00:22:21;6.10;99.90
39347;DHT22;26262;49.836;6.632;2023-05-03T00:24:47;6.00;99.90
39347;DHT22;26262;49.836;6.632;2023-05-03T00:27:14;5.90;99.90
39347;DHT22;26262;49.836;6.632;2023-05-03T00:29:39;5.90;99.90
39347;DHT22;26262;49.836;6.632;2023-05-03T00:32:05;5.90;99.90
39347;DHT22;26262;49.836;6.632;2023-05-03T00:34:30;5.60;99.90
39347;DHT22;26262;49.836;6.632;2023-05-03T00:36:56;5.60;99.90
39347;DHT22;26262;49.836;6.632;2023-05-03T00:39:21;5.80;99.90
39347;DHT22;26262;49.836;6.632;2023-05-03T00:41:47;5.80;99.90
39347;DHT22;26262;49.836;6.632;2023-05-03T00:44:13;5.70;99.90
39347;DHT22;26262;49.836;6.632;2023-05-03T00:46:38;5.80;99.90
39347;DHT22;26262;49.836;6.632;2023-05-03T00:49:05;5.80;99.90
39347;DHT22;26262;49.836;6.632;2023-05-03T00:51:30;5.90;99.90
39347;DHT22;26262;49.836;6.632;2023-05-03T00:53:56;5.90;99.90
39347;DHT22;26262;49.836;6.632;2023-05-03T00:56:22;5.60;99.90
39347;DHT22;26262;49.836;6.632;2023-05-03T00:58:50;5.70;99.90
39347;DHT22;26262;49.836;6.632;2023-05-03T01:01:16;5.70;99.90
39347;DHT22;26262;49.836;6.632;2023-05-03T01:03:42;5.50;99.90
39347;DHT22;26262;49.836;6.632;2023-05-03T01:09:09;5.40;99.90
39347;DHT22;26262;49.836;6.632;2023-05-03T01:11:47;5.10;99.90
39347;DHT22;26262;49.836;6.632;2023-05-03T01:14:27;5.00;99.90
39347;DHT22;26262;49.836;6.632;2023-05-03T01:16:56;5.10;99.90
39347;DHT22;26262;49.836;6.632;2023-05-03T01:19:27;5.20;99.90
39347;DHT22;26262;49.836;6.632;2023-05-03T01:22:08;5.20;99.90
39347;DHT22;26262;49.836;6.632;2023-05-03T01:24:35;5.00;99.90
39347;DHT22;26262;49.836;6.632;2023-05-03T01:27:03;4.90;99.90
39347;DHT22;26262;49.836;6.632;2023-05-03T01:29:29;5.00;99.90
39347;DHT22;26262;49.836;6.632;2023-05-03T01:31:59;4.90;99.90
39347;DHT22;26262;49.836;6.632;2023-05-03T01:34:40;5.00;99.90
39347;DHT22;26262;49.836;6.632;2023-05-03T01:37:07;5.10;99.90
39347;DHT22;26262;49.836;6.632;2023-05-03T01:39:41;5.20;99.90
39347;DHT22;26262;49.836;6.632;2023-05-03T01:42:08;5.30;99.90
39347;DHT22;26262;49.836;6.632;2023-05-03T01:44:34;5.30;99.90
39347;DHT22;26262;49.836;6.632;2023-05-03T01:47:00;5.20;99.90
39347;DHT22;26262;49.836;6.632;2023-05-03T01:49:26;5.20;99.90
39347;DHT22;26262;49.836;6.632;2023-05-03T01:51:51;4.80;99.90
39347;DHT22;26262;49.836;6.632;2023-05-03T01:54:17;4.90;99.90
39347;DHT22;26262;49.836;6.632;2023-05-03T01:56:43;5.00;99.90
39347;DHT22;26262;49.836;6.632;2023-05-03T01:59:09;4.90;99.90
39347;DHT22;26262;49.836;6.632;2023-05-03T02:01:35;5.00;99.90
39347;DHT22;26262;49.836;6.632;2023-05-03T02:04:00;5.10;99.90
39347;DHT22;26262;49.836;6.632;2023-05-03T02:06:26;5.00;99.90
39347;DHT22;26262;49.836;6.632;2023-05-03T02:08:52;5.10;99.90
39347;DHT22;26262;49.836;6.632;2023-05-03T02:11:18;5.20;99.90
39347;DHT22;26262;49.836;6.632;2023-05-03T02:13:44;5.10;99.90
39347;DHT22;26262;49.836;6.632;2023-05-03T02:16:12;4.60;99.90
39347;DHT22;26262;49.836;6.632;2023-05-03T02:18:37;4.60;99.90
39347;DHT22;26262;49.836;6.632;2023-05-03T02:21:03;4.80;99.90
39347;DHT22;26262;49.836;6.632;2023-05-03T02:23:29;4.70;99.90
39347;DHT22;26262;49.836;6.632;2023-05-03T02:25:54;4.80;99.90
39347;DHT22;26262;49.836;6.632;2023-05-03T02:28:20;4.80;99.90
39347;DHT22;26262;49.836;6.632;2023-05-03T02:30:45;4.80;99.90
39347;DHT22;26262;49.836;6.632;2023-05-03T02:33:11;4.80;99.90
39347;DHT22;26262;49.836;6.632;2023-05-03T02:35:36;4.60;99.90
39347;DHT22;26262;49.836;6.632;2023-05-03T02:38:02;4.60;99.90
39347;DHT22;26262;49.836;6.632;2023-05-03T02:40:27;4.60;99.90
39347;DHT22;26262;49.836;6.632;2023-05-03T02:42:53;4.60;99.90
39347;DHT22;26262;49.836;6.632;2023-05-03T02:45:18;4.60;99.90
39347;DHT22;26262;49.836;6.632;2023-05-03T02:47:45;4.60;99.90
39347;DHT22;26262;49.836;6.632;2023-05-03T02:50:10;4.60;99.90
39347;DHT22;26262;49.836;6.632;2023-05-03T02:52:36;4.70;99.90
39347;DHT22;26262;49.836;6.632;2023-05-03T02:55:01;4.60;99.90
39347;DHT22;26262;49.836;6.632;2023-05-03T02:57:27;4.60;99.90
39347;DHT22;26262;49.836;6.632;2023-05-03T02:59:52;4.60;99.90
39347;DHT22;26262;49.836;6.632;2023-05-03T03:02:18;4.60;99.90
39347;DHT22;26262;49.836;6.632;2023-05-03T03:04:43;4.20;99.90
39347;DHT22;26262;49.836;6.632;2023-05-03T03:07:09;4.10;99.90
39347;DHT22;26262;49.836;6.632;2023-05-03T03:09:35;4.10;99.90
39347;DHT22;26262;49.836;6.632;2023-05-03T03:12:00;4.20;99.90
39347;DHT22;26262;49.836;6.632;2023-05-03T03:14:28;4.30;99.90
39347;DHT22;26262;49.836;6.632;2023-05-03T03:16:53;4.30;99.90
39347;DHT22;26262;49.836;6.632;2023-05-03T03:19:19;4.20;99.90
39347;DHT22;26262;49.836;6.632;2023-05-03T03:21:44;4.30;99.90
39347;DHT22;26262;49.836;6.632;2023-05-03T03:24:10;4.20;99.90
39347;DHT22;26262;49.836;6.632;2023-05-03T03:26:35;4.00;99.90
39347;DHT22;26262;49.836;6.632;2023-05-03T03:29:01;4.10;99.90
39347;DHT22;26262;49.836;6.632;2023-05-03T03:31:26;4.20;99.90
39347;DHT22;26262;49.836;6.632;2023-05-03T03:33:52;4.20;99.90
39347;DHT22;26262;49.836;6.632;2023-05-03T03:36:17;4.20;99.90
39347;DHT22;26262;49.836;6.632;2023-05-03T03:38:43;4.20;99.90
39347;DHT22;26262;49.836;6.632;2023-05-03T03:41:09;4.20;99.90
39347;DHT22;26262;49.836;6.632;2023-05-03T03:43:34;4.10;99.90
39347;DHT22;26262;49.836;6.632;2023-05-03T03:46:00;4.00;99.90
39347;DHT22;26262;49.836;6.632;2023-05-03T03:48:25;4.00;99.90
39347;DHT22;26262;49.836;6.632;2023-05-03T03:50:51;4.10;99.90
39347;DHT22;26262;49.836;6.632;2023-05-03T03:53:16;3.80;99.90
39347;DHT22;26262;49.836;6.632;2023-05-03T03:55:42;3.70;99.90
39347;DHT22;26262;49.836;6.632;2023-05-03T03:58:08;3.80;99.90
39347;DHT22;26262;49.836;6.632;2023-05-03T04:00:34;3.80;99.90
39347;DHT22;26262;49.836;6.632;2023-05-03T04:03:00;3.90;99.90
39347;DHT22;26262;49.836;6.632;2023-05-03T04:05:26;3.90;99.90
39347;DHT22;26262;49.836;6.632;2023-05-03T04:07:51;4.00;99.90
39347;DHT22;26262;49.836;6.632;2023-05-03T04:10:17;4.00;99.90
39347;DHT22;26262;49.836;6.632;2023-05-03T04:12:42;3.80;99.90
39347;DHT22;26262;49.836;6.632;2023-05-03T04:15:09;3.80;99.90
39347;DHT22;26262;49.836;6.632;2023-05-03T04:17:35;3.80;99.90
39347;DHT22;26262;49.836;6.632;2023-05-03T04:20:01;3.90;99.90
39347;DHT22;26262;49.836;6.632;2023-05-03T04:22:35;3.90;99.90
39347;DHT22;26262;49.836;6.632;2023-05-03T04:25:02;3.90;99.90
39347;DHT22;26262;49.836;6.632;2023-05-03T04:27:27;3.90;99.90
39347;DHT22;26262;49.836;6.632;2023-05-03T04:29:53;3.90;99.90
39347;DHT22;26262;49.836;6.632;2023-05-03T04:32:19;3.90;99.90
39347;DHT22;26262;49.836;6.632;2023-05-03T04:34:50;4.00;99.90
39347;DHT22;26262;49.836;6.632;2023-05-03T04:37:17;3.90;99.90
39347;DHT22;26262;49.836;6.632;2023-05-03T04:39:45;3.90;99.90
39347;DHT22;26262;49.836;6.632;2023-05-03T04:42:11;4.00;99.90
39347;DHT22;26262;49.836;6.632;2023-05-03T04:44:41;3.80;99.90
39347;DHT22;26262;49.836;6.632;2023-05-03T04:47:07;3.80;99.90
39347;DHT22;26262;49.836;6.632;2023-05-03T04:49:33;3.80;99.90
39347;DHT22;26262;49.836;6.632;2023-05-03T04:51:59;3.80;99.90
39347;DHT22;26262;49.836;6.632;2023-05-03T04:54:24;3.60;99.90
39347;DHT22;26262;49.836;6.632;2023-05-03T04:56:50;3.70;99.90
39347;DHT22;26262;49.836;6.632;2023-05-03T04:59:16;3.70;99.90
39347;DHT22;26262;49.836;6.632;2023-05-03T05:01:42;3.60;99.90
39347;DHT22;26262;49.836;6.632;2023-05-03T05:04:07;3.70;99.90
39347;DHT22;26262;49.836;6.632;2023-05-03T05:06:33;3.80;99.90
39347;DHT22;26262;49.836;6.632;2023-05-03T05:08:59;3.90;99.90
39347;DHT22;26262;49.836;6.632;2023-05-03T05:11:24;4.00;99.90
39347;DHT22;26262;49.836;6.632;2023-05-03T05:13:50;4.00;99.90
39347;DHT22;26262;49.836;6.632;2023-05-03T05:16:15;4.10;99.90
39347;DHT22;26262;49.836;6.632;2023-05-03T05:18:41;4.10;99.90
39347;DHT22;26262;49.836;6.632;2023-05-03T05:21:07;4.20;99.90
39347;DHT22;26262;49.836;6.632;2023-05-03T05:23:33;3.90;99.90
39347;DHT22;26262;49.836;6.632;2023-05-03T05:25:58;4.00;99.90
39347;DHT22;26262;49.836;6.632;2023-05-03T05:28:26;4.10;99.90
39347;DHT22;26262;49.836;6.632;2023-05-03T05:30:52;4.20;99.90
39347;DHT22;26262;49.836;6.632;2023-05-03T05:33:18;4.30;99.90
39347;DHT22;26262;49.836;6.632;2023-05-03T05:35:45;4.30;99.90
39347;DHT22;26262;49.836;6.632;2023-05-03T05:38:11;4.40;99.90
39347;DHT22;26262;49.836;6.632;2023-05-03T05:40:36;4.40;99.90
39347;DHT22;26262;49.836;6.632;2023-05-03T05:43:03;4.20;99.90
39347;DHT22;26262;49.836;6.632;2023-05-03T05:45:29;4.20;99.90
39347;DHT22;26262;49.836;6.632;2023-05-03T05:47:55;4.30;99.90
39347;DHT22;26262;49.836;6.632;2023-05-03T05:50:20;4.50;99.90
39347;DHT22;26262;49.836;6.632;2023-05-03T05:52:46;4.50;99.90
39347;DHT22;26262;49.836;6.632;2023-05-03T05:55:12;4.50;99.90
39347;DHT22;26262;49.836;6.632;2023-05-03T05:57:39;4.40;99.90
39347;DHT22;26262;49.836;6.632;2023-05-03T06:00:05;4.40;99.90
39347;DHT22;26262;49.836;6.632;2023-05-03T06:02:39;4.50;99.90
39347;DHT22;26262;49.836;6.632;2023-05-03T06:05:05;4.70;99.90
39347;DHT22;26262;49.836;6.632;2023-05-03T06:07:31;4.70;99.90
39347;DHT22;26262;49.836;6.632;2023-05-03T06:09:57;4.90;99.90
39347;DHT22;26262;49.836;6.632;2023-05-03T06:12:22;4.80;99.90
39347;DHT22;26262;49.836;6.632;2023-05-03T06:14:48;4.80;99.90
39347;DHT22;26262;49.836;6.632;2023-05-03T06:17:13;4.80;99.90
39347;DHT22;26262;49.836;6.632;2023-05-03T06:19:39;5.00;99.90
39347;DHT22;26262;49.836;6.632;2023-05-03T06:22:05;5.20;99.90
39347;DHT22;26262;49.836;6.632;2023-05-03T06:24:31;5.40;99.90
39347;DHT22;26262;49.836;6.632;2023-05-03T06:26:57;5.50;99.90
39347;DHT22;26262;49.836;6.632;2023-05-03T06:29:23;5.70;99.90
39347;DHT22;26262;49.836;6.632;2023-05-03T06:31:49;5.80;99.90
39347;DHT22;26262;49.836;6.632;2023-05-03T06:34:17;5.90;99.90
39347;DHT22;26262;49.836;6.632;2023-05-03T06:36:44;6.00;99.90
39347;DHT22;26262;49.836;6.632;2023-05-03T06:39:10;6.20;99.90
39347;DHT22;26262;49.836;6.632;2023-05-03T06:41:35;6.30;99.90
39347;DHT22;26262;49.836;6.632;2023-05-03T06:44:01;6.30;99.90
39347;DHT22;26262;49.836;6.632;2023-05-03T06:46:28;6.50;99.90
39347;DHT22;26262;49.836;6.632;2023-05-03T06:48:54;6.60;99.90
39347;DHT22;26262;49.836;6.632;2023-05-03T06:51:26;6.80;99.90
39347;DHT22;26262;49.836;6.632;2023-05-03T06:53:58;6.90;99.90
39347;DHT22;26262;49.836;6.632;2023-05-03T06:56:34;7.10;99.90
39347;DHT22;26262;49.836;6.632;2023-05-03T06:59:00;7.30;99.90
39347;DHT22;26262;49.836;6.632;2023-05-03T07:01:26;7.50;99.90
39347;DHT22;26262;49.836;6.632;2023-05-03T07:03:52;7.60;99.90
39347;DHT22;26262;49.836;6.632;2023-05-03T07:06:18;7.90;99.90
39347;DHT22;26262;49.836;6.632;2023-05-03T07:08:44;8.10;99.90
39347;DHT22;26262;49.836;6.632;2023-05-03T07:11:09;8.30;99.90
39347;DHT22;26262;49.836;6.632;2023-05-03T07:13:35;8.40;99.90
39347;DHT22;26262;49.836;6.632;2023-05-03T07:16:01;8.60;99.90
39347;DHT22;26262;49.836;6.632;2023-05-03T07:18:26;8.70;99.90
39347;DHT22;26262;49.836;6.632;2023-05-03T07:20:52;8.80;99.90
39347;DHT22;26262;49.836;6.632;2023-05-03T07:23:18;9.00;99.90
39347;DHT22;26262;49.836;6.632;2023-05-03T07:25:43;9.10;99.90
39347;DHT22;26262;49.836;6.632;2023-05-03T07:28:10;9.30;99.90
39347;DHT22;26262;49.836;6.632;2023-05-03T07:30:35;9.50;99.90
39347;DHT22;26262;49.836;6.632;2023-05-03T07:33:01;9.60;99.90
39347;DHT22;26262;49.836;6.632;2023-05-03T07:35:26;9.80;99.90
39347;DHT22;26262;49.836;6.632;2023-05-03T07:37:52;9.80;99.90
39347;DHT22;26262;49.836;6.632;2023-05-03T07:40:18;9.90;99.90
39347;DHT22;26262;49.836;6.632;2023-05-03T07:42:44;10.00;99.90
39347;DHT22;26262;49.836;6.632;2023-05-03T07:45:10;10.20;99.90
39347;DHT22;26262;49.836;6.632;2023-05-03T07:47:36;10.30;99.90
39347;DHT22;26262;49.836;6.632;2023-05-03T07:50:05;10.40;99.90
39347;DHT22;26262;49.836;6.632;2023-05-03T07:52:38;10.50;99.90
39347;DHT22;26262;49.836;6.632;2023-05-03T07:55:04;10.60;99.90
39347;DHT22;26262;49.836;6.632;2023-05-03T07:57:31;10.70;99.90
39347;DHT22;26262;49.836;6.632;2023-05-03T07:59:56;10.90;99.90
39347;DHT22;26262;49.836;6.632;2023-05-03T08:02:22;11.00;99.90
39347;DHT22;26262;49.836;6.632;2023-05-03T08:04:47;11.10;99.90
39347;DHT22;26262;49.836;6.632;2023-05-03T08:07:13;11.20;99.90
39347;DHT22;26262;49.836;6.632;2023-05-03T08:09:39;11.40;99.90
39347;DHT22;26262;49.836;6.632;2023-05-03T08:12:06;11.60;99.90
39347;DHT22;26262;49.836;6.632;2023-05-03T08:14:31;11.70;99.90
39347;DHT22;26262;49.836;6.632;2023-05-03T08:16:58;11.80;99.90
39347;DHT22;26262;49.836;6.632;2023-05-03T08:19:24;11.90;99.90
39347;DHT22;26262;49.836;6.632;2023-05-03T08:21:50;12.00;99.90
39347;DHT22;26262;49.836;6.632;2023-05-03T08:24:19;12.10;99.90
39347;DHT22;26262;49.836;6.632;2023-05-03T08:26:45;12.20;99.90
39347;DHT22;26262;49.836;6.632;2023-05-03T08:29:11;12.30;99.90
39347;DHT22;26262;49.836;6.632;2023-05-03T08:31:36;12.40;99.90
39347;DHT22;26262;49.836;6.632;2023-05-03T08:34:02;12.50;99.90
39347;DHT22;26262;49.836;6.632;2023-05-03T08:36:28;12.60;99.90
39347;DHT22;26262;49.836;6.632;2023-05-03T08:38:54;12.60;99.90
39347;DHT22;26262;49.836;6.632;2023-05-03T08:41:28;12.70;99.90
39347;DHT22;26262;49.836;6.632;2023-05-03T08:43:55;12.80;99.90
39347;DHT22;26262;49.836;6.632;2023-05-03T08:46:22;12.80;99.90
39347;DHT22;26262;49.836;6.632;2023-05-03T08:48:51;13.00;99.90
39347;DHT22;26262;49.836;6.632;2023-05-03T08:51:21;13.20;99.90
39347;DHT22;26262;49.836;6.632;2023-05-03T08:53:47;13.40;99.90
39347;DHT22;26262;49.836;6.632;2023-05-03T08:56:35;13.40;99.90
39347;DHT22;26262;49.836;6.632;2023-05-03T08:59:04;13.50;99.90
39347;DHT22;26262;49.836;6.632;2023-05-03T09:01:37;13.50;99.90
39347;DHT22;26262;49.836;6.632;2023-05-03T09:04:03;13.80;99.90
39347;DHT22;26262;49.836;6.632;2023-05-03T09:06:29;13.80;99.70
39347;DHT22;26262;49.836;6.632;2023-05-03T09:08:57;13.70;98.90
39347;DHT22;26262;49.836;6.632;2023-05-03T09:11:28;13.80;99.80
39347;DHT22;26262;49.836;6.632;2023-05-03T09:14:14;14.10;99.90
39347;DHT22;26262;49.836;6.632;2023-05-03T09:16:42;14.30;99.90
39347;DHT22;26262;49.836;6.632;2023-05-03T09:19:12;14.30;99.40
39347;DHT22;26262;49.836;6.632;2023-05-03T09:21:39;14.60;99.90
39347;DHT22;26262;49.836;6.632;2023-05-03T09:26:38;14.60;98.30
39347;DHT22;26262;49.836;6.632;2023-05-03T09:29:05;14.60;97.80
39347;DHT22;26262;49.836;6.632;2023-05-03T09:31:31;14.60;98.60
39347;DHT22;26262;49.836;6.632;2023-05-03T09:33:58;14.90;98.50
39347;DHT22;26262;49.836;6.632;2023-05-03T09:36:24;15.50;97.30
39347;DHT22;26262;49.836;6.632;2023-05-03T09:38:50;15.50;96.80
39347;DHT22;26262;49.836;6.632;2023-05-03T09:41:29;15.50;98.50
39347;DHT22;26262;49.836;6.632;2023-05-03T09:43:56;15.60;95.70
39347;DHT22;26262;49.836;6.632;2023-05-03T09:46:27;15.50;95.00
39347;DHT22;26262;49.836;6.632;2023-05-03T09:48:54;15.30;96.70
39347;DHT22;26262;49.836;6.632;2023-05-03T09:51:22;15.40;97.30
39347;DHT22;26262;49.836;6.632;2023-05-03T09:53:48;15.90;96.00
39347;DHT22;26262;49.836;6.632;2023-05-03T09:56:14;15.90;97.70
39347;DHT22;26262;49.836;6.632;2023-05-03T09:58:41;16.20;97.50
39347;DHT22;26262;49.836;6.632;2023-05-03T10:01:08;16.30;94.80
39347;DHT22;26262;49.836;6.632;2023-05-03T10:06:05;17.00;95.60
39347;DHT22;26262;49.836;6.632;2023-05-03T10:08:37;17.40;93.60
39347;DHT22;26262;49.836;6.632;2023-05-03T10:11:03;17.40;93.50
39347;DHT22;26262;49.836;6.632;2023-05-03T10:13:32;17.60;94.00
39347;DHT22;26262;49.836;6.632;2023-05-03T10:16:04;17.90;93.50
39347;DHT22;26262;49.836;6.632;2023-05-03T10:18:31;18.30;93.70
39347;DHT22;26262;49.836;6.632;2023-05-03T10:21:05;18.50;92.30
39347;DHT22;26262;49.836;6.632;2023-05-03T10:23:31;18.70;90.70
39347;DHT22;26262;49.836;6.632;2023-05-03T10:28:36;19.20;90.20
39347;DHT22;26262;49.836;6.632;2023-05-03T10:31:01;19.40;90.00
39347;DHT22;26262;49.836;6.632;2023-05-03T10:33:29;19.60;86.30
39347;DHT22;26262;49.836;6.632;2023-05-03T10:35:56;19.80;87.20
39347;DHT22;26262;49.836;6.632;2023-05-03T10:38:26;19.70;86.40
39347;DHT22;26262;49.836;6.632;2023-05-03T10:40:54;19.80;86.70
39347;DHT22;26262;49.836;6.632;2023-05-03T10:45:59;19.70;84.70
39347;DHT22;26262;49.836;6.632;2023-05-03T10:48:25;20.00;86.30
39347;DHT22;26262;49.836;6.632;2023-05-03T10:50:51;20.30;83.50
39347;DHT22;26262;49.836;6.632;2023-05-03T10:53:34;20.50;79.60
39347;DHT22;26262;49.836;6.632;2023-05-03T10:56:04;20.50;84.40
39347;DHT22;26262;49.836;6.632;2023-05-03T10:58:35;20.70;81.40
39347;DHT22;26262;49.836;6.632;2023-05-03T11:01:03;20.90;81.10
39347;DHT22;26262;49.836;6.632;2023-05-03T11:03:43;21.20;81.00
39347;DHT22;26262;49.836;6.632;2023-05-03T11:06:28;21.10;81.10
39347;DHT22;26262;49.836;6.632;2023-05-03T11:08:53;21.00;82.90
39347;DHT22;26262;49.836;6.632;2023-05-03T11:11:20;21.00;78.70
39347;DHT22;26262;49.836;6.632;2023-05-03T11:13:46;20.90;82.70
39347;DHT22;26262;49.836;6.632;2023-05-03T11:16:14;21.40;81.90
39347;DHT22;26262;49.836;6.632;2023-05-03T11:18:40;21.70;77.50
39347;DHT22;26262;49.836;6.632;2023-05-03T11:21:06;22.10;77.60
39347;DHT22;26262;49.836;6.632;2023-05-03T11:23:31;22.30;73.60
39347;DHT22;26262;49.836;6.632;2023-05-03T11:25:57;22.40;76.20
39347;DHT22;26262;49.836;6.632;2023-05-03T11:28:24;22.80;76.60
39347;DHT22;26262;49.836;6.632;2023-05-03T11:30:50;23.10;72.20
39347;DHT22;26262;49.836;6.632;2023-05-03T11:33:15;23.10;72.40
39347;DHT22;26262;49.836;6.632;2023-05-03T11:35:41;22.60;70.10
39347;DHT22;26262;49.836;6.632;2023-05-03T11:38:08;21.70;71.00
39347;DHT22;26262;49.836;6.632;2023-05-03T11:40:34;20.70;71.10
39347;DHT22;26262;49.836;6.632;2023-05-03T11:43:01;21.20;71.40
39347;DHT22;26262;49.836;6.632;2023-05-03T11:45:43;21.80;72.20
39347;DHT22;26262;49.836;6.632;2023-05-03T11:48:11;22.40;71.10
39347;DHT22;26262;49.836;6.632;2023-05-03T11:50:53;22.20;67.20
39347;DHT22;26262;49.836;6.632;2023-05-03T11:53:23;22.80;72.00
39347;DHT22;26262;49.836;6.632;2023-05-03T11:55:51;23.10;69.50
39347;DHT22;26262;49.836;6.632;2023-05-03T11:58:21;22.30;67.50
39347;DHT22;26262;49.836;6.632;2023-05-03T12:00:51;22.80;68.70
39347;DHT22;26262;49.836;6.632;2023-05-03T12:03:22;22.50;67.70
39347;DHT22;26262;49.836;6.632;2023-05-03T12:05:49;23.10;68.60
39347;DHT22;26262;49.836;6.632;2023-05-03T12:08:15;23.00;69.50
39347;DHT22;26262;49.836;6.632;2023-05-03T12:10:43;21.60;69.80
39347;DHT22;26262;49.836;6.632;2023-05-03T12:13:08;22.40;69.10
39347;DHT22;26262;49.836;6.632;2023-05-03T12:15:35;23.00;70.70
39347;DHT22;26262;49.836;6.632;2023-05-03T12:18:08;23.30;69.70
39347;DHT22;26262;49.836;6.632;2023-05-03T12:20:35;23.90;68.00
39347;DHT22;26262;49.836;6.632;2023-05-03T12:23:03;24.20;66.40
39347;DHT22;26262;49.836;6.632;2023-05-03T12:25:30;24.20;66.00
39347;DHT22;26262;49.836;6.632;2023-05-03T12:27:58;24.20;66.30
39347;DHT22;26262;49.836;6.632;2023-05-03T12:30:24;24.00;66.50
39347;DHT22;26262;49.836;6.632;2023-05-03T12:32:50;24.10;64.60
39347;DHT22;26262;49.836;6.632;2023-05-03T12:35:17;24.10;64.30
39347;DHT22;26262;49.836;6.632;2023-05-03T12:37:43;24.50;66.50
39347;DHT22;26262;49.836;6.632;2023-05-03T12:40:08;24.10;60.70
39347;DHT22;26262;49.836;6.632;2023-05-03T12:42:34;24.00;61.50
39347;DHT22;26262;49.836;6.632;2023-05-03T12:45:00;24.30;60.10
39347;DHT22;26262;49.836;6.632;2023-05-03T12:47:26;23.60;61.00
39347;DHT22;26262;49.836;6.632;2023-05-03T12:49:52;23.00;63.90
39347;DHT22;26262;49.836;6.632;2023-05-03T12:52:19;23.60;65.30
39347;DHT22;26262;49.836;6.632;2023-05-03T12:54:45;24.20;67.30
39347;DHT22;26262;49.836;6.632;2023-05-03T12:57:11;24.70;65.10
39347;DHT22;26262;49.836;6.632;2023-05-03T12:59:37;24.80;66.40
39347;DHT22;26262;49.836;6.632;2023-05-03T13:02:03;25.20;64.40
39347;DHT22;26262;49.836;6.632;2023-05-03T13:04:29;25.20;60.90
39347;DHT22;26262;49.836;6.632;2023-05-03T13:06:54;24.90;61.20
39347;DHT22;26262;49.836;6.632;2023-05-03T13:09:21;23.90;59.00
39347;DHT22;26262;49.836;6.632;2023-05-03T13:11:47;24.00;57.50
39347;DHT22;26262;49.836;6.632;2023-05-03T13:14:20;24.40;62.00
39347;DHT22;26262;49.836;6.632;2023-05-03T13:16:46;24.80;63.40
39347;DHT22;26262;49.836;6.632;2023-05-03T13:19:12;24.90;59.40
39347;DHT22;26262;49.836;6.632;2023-05-03T13:21:38;24.30;58.30
39347;DHT22;26262;49.836;6.632;2023-05-03T13:24:04;23.60;57.90
39347;DHT22;26262;49.836;6.632;2023-05-03T13:26:31;23.50;61.00
39347;DHT22;26262;49.836;6.632;2023-05-03T13:28:57;22.90;63.10
39347;DHT22;26262;49.836;6.632;2023-05-03T13:31:22;23.60;62.80
39347;DHT22;26262;49.836;6.632;2023-05-03T13:33:49;23.30;62.20
39347;DHT22;26262;49.836;6.632;2023-05-03T13:36:18;23.60;57.90
39347;DHT22;26262;49.836;6.632;2023-05-03T13:38:47;23.90;60.50
39347;DHT22;26262;49.836;6.632;2023-05-03T13:41:12;24.10;59.70
39347;DHT22;26262;49.836;6.632;2023-05-03T13:43:38;24.20;62.90
39347;DHT22;26262;49.836;6.632;2023-05-03T13:46:06;24.40;63.80
39347;DHT22;26262;49.836;6.632;2023-05-03T13:48:32;24.20;61.70
39347;DHT22;26262;49.836;6.632;2023-05-03T13:50:57;24.40;59.60
39347;DHT22;26262;49.836;6.632;2023-05-03T13:53:23;24.70;63.40
39347;DHT22;26262;49.836;6.632;2023-05-03T13:55:48;24.80;61.10
39347;DHT22;26262;49.836;6.632;2023-05-03T13:58:14;24.70;59.10
39347;DHT22;26262;49.836;6.632;2023-05-03T14:00:39;24.90;61.60
39347;DHT22;26262;49.836;6.632;2023-05-03T14:03:05;25.30;59.90
39347;DHT22;26262;49.836;6.632;2023-05-03T14:05:31;25.30;60.10
39347;DHT22;26262;49.836;6.632;2023-05-03T14:07:57;25.10;61.10
39347;DHT22;26262;49.836;6.632;2023-05-03T14:10:23;25.00;63.80
39347;DHT22;26262;49.836;6.632;2023-05-03T14:12:49;25.00;62.40
39347;DHT22;26262;49.836;6.632;2023-05-03T14:15:15;25.10;62.70
39347;DHT22;26262;49.836;6.632;2023-05-03T14:17:41;24.80;61.20
39347;DHT22;26262;49.836;6.632;2023-05-03T14:20:08;24.10;62.90
39347;DHT22;26262;49.836;6.632;2023-05-03T14:22:37;24.20;60.80
39347;DHT22;26262;49.836;6.632;2023-05-03T14:25:02;23.60;59.00
39347;DHT22;26262;49.836;6.632;2023-05-03T14:27:28;23.60;61.60
39347;DHT22;26262;49.836;6.632;2023-05-03T14:29:55;23.50;62.50
39347;DHT22;26262;49.836;6.632;2023-05-03T14:32:21;23.70;61.50
39347;DHT22;26262;49.836;6.632;2023-05-03T14:34:48;23.90;62.10
39347;DHT22;26262;49.836;6.632;2023-05-03T14:37:14;23.40;63.40
39347;DHT22;26262;49.836;6.632;2023-05-03T14:39:39;23.60;63.30
39347;DHT22;26262;49.836;6.632;2023-05-03T14:42:05;23.90;61.30
39347;DHT22;26262;49.836;6.632;2023-05-03T14:44:30;23.90;60.50
39347;DHT22;26262;49.836;6.632;2023-05-03T14:46:56;23.80;64.00
39347;DHT22;26262;49.836;6.632;2023-05-03T14:49:25;23.70;60.60
39347;DHT22;26262;49.836;6.632;2023-05-03T14:51:50;23.90;64.00
39347;DHT22;26262;49.836;6.632;2023-05-03T14:54:16;23.80;63.00
39347;DHT22;26262;49.836;6.632;2023-05-03T14:56:42;23.40;60.50
39347;DHT22;26262;49.836;6.632;2023-05-03T14:59:07;23.70;62.10
39347;DHT22;26262;49.836;6.632;2023-05-03T15:01:33;23.90;60.40
39347;DHT22;26262;49.836;6.632;2023-05-03T15:04:01;24.00;61.60
39347;DHT22;26262;49.836;6.632;2023-05-03T15:06:28;23.90;59.30
39347;DHT22;26262;49.836;6.632;2023-05-03T15:08:56;23.80;60.80
39347;DHT22;26262;49.836;6.632;2023-05-03T15:11:26;23.50;61.80
39347;DHT22;26262;49.836;6.632;2023-05-03T15:13:52;23.30;61.30
39347;DHT22;26262;49.836;6.632;2023-05-03T15:16:17;23.20;61.00
39347;DHT22;26262;49.836;6.632;2023-05-03T15:18:43;23.20;62.20
39347;DHT22;26262;49.836;6.632;2023-05-03T15:21:17;23.30;61.60
39347;DHT22;26262;49.836;6.632;2023-05-03T15:23:43;23.30;61.90
39347;DHT22;26262;49.836;6.632;2023-05-03T15:26:09;23.30;62.30
39347;DHT22;26262;49.836;6.632;2023-05-03T15:28:35;23.20;61.80
39347;DHT22;26262;49.836;6.632;2023-05-03T15:31:01;23.20;59.90
39347;DHT22;26262;49.836;6.632;2023-05-03T15:33:26;22.80;60.20
39347;DHT22;26262;49.836;6.632;2023-05-03T15:35:52;22.70;61.60
39347;DHT22;26262;49.836;6.632;2023-05-03T15:38:19;22.60;63.10
39347;DHT22;26262;49.836;6.632;2023-05-03T15:40:45;22.30;63.40
39347;DHT22;26262;49.836;6.632;2023-05-03T15:43:10;22.20;61.20
39347;DHT22;26262;49.836;6.632;2023-05-03T15:45:36;22.10;61.30
39347;DHT22;26262;49.836;6.632;2023-05-03T15:48:01;21.90;61.70